Terminal Aerodrome Forecast
Issued by NWS

Home | Current Version | Previous Version | Text Only | Print | Product List | Glossary On
Versions: 1 2 3 4 5 6 7 8 9 10 11 12 13 14 15 16 17 18 19 20 21
200
FTUS42 KGSP 030528
TAFGMU
TAF
KGMU 030528Z 0306/0406 19008KT P6SM FEW100 SCT250
     FM030900 21008KT P6SM VCSH OVC030
     FM031300 24010G18KT P6SM SCT045 BKN200 PROB30 0316/0322 4SM
      -TSRA BKN045CB
     FM040000 28008KT P6SM SCT250=

USA.gov is the U.S. government's official web portal to all federal, state and local government web resources and services.